createdAt,value
2018-08-30T00:02:01.541Z,95957.05
2018-08-30T00:04:30.312Z,95967.94
2018-08-30T00:06:58.970Z,95975.06
2018-08-30T00:09:27.618Z,95986.75
2018-08-30T00:11:56.488Z,95981.41
2018-08-30T00:14:26.023Z,95986.94
2018-08-30T00:16:54.743Z,95986.94
2018-08-30T00:19:23.384Z,95988.88
2018-08-30T00:21:52.087Z,95993.89
2018-08-30T00:24:20.652Z,95993.38
2018-08-30T00:26:49.441Z,95990.98
2018-08-30T00:29:18.160Z,95993.88
2018-08-30T00:31:47.011Z,95987.87
2018-08-30T00:34:15.568Z,95997.59
2018-08-30T00:36:44.213Z,95988.21
2018-08-30T00:39:12.937Z,95997.44
2018-08-30T00:41:41.564Z,95997.27
2018-08-30T00:44:11.137Z,95996.62
2018-08-30T00:46:39.758Z,95995.02
2018-08-30T00:49:08.451Z,95993.38
2018-08-30T00:51:37.131Z,95990.00
2018-08-30T00:54:06.618Z,95988.06
2018-08-30T00:56:35.931Z,95990.39
2018-08-30T00:59:04.622Z,96003.02
2018-08-30T01:01:33.339Z,95998.00
2018-08-30T01:04:02.043Z,95994.08
2018-08-30T01:06:31.331Z,96000.91
2018-08-30T01:08:59.997Z,96000.77
2018-08-30T01:11:29.226Z,95996.20
2018-08-30T01:13:58.064Z,95996.54
2018-08-30T01:16:27.675Z,96007.55
2018-08-30T01:18:56.946Z,96003.97
2018-08-30T01:21:25.664Z,95998.80
2018-08-30T01:23:54.478Z,95994.42
2018-08-30T01:26:23.379Z,95999.13
2018-08-30T01:28:52.087Z,95991.05
2018-08-30T01:31:20.852Z,95999.30
2018-08-30T01:33:49.484Z,95994.77
2018-08-30T01:36:18.130Z,95998.01
2018-08-30T01:38:46.670Z,95994.94
2018-08-30T01:41:15.748Z,96000.77
2018-08-30T01:43:44.422Z,96010.29
2018-08-30T01:46:13.145Z,96001.55
2018-08-30T01:48:41.773Z,96005.06
2018-08-30T01:51:10.471Z,96005.53
2018-08-30T01:53:39.175Z,95998.55
2018-08-30T01:56:08.011Z,96005.62
2018-08-30T01:58:36.550Z,96005.88
2018-08-30T02:01:05.448Z,96005.32
2018-08-30T02:03:34.096Z,96005.48
2018-08-30T02:06:02.963Z,96006.02
2018-08-30T02:08:31.632Z,96003.75
2018-08-30T02:11:00.204Z,96004.34
2018-08-30T02:13:29.223Z,96000.27
2018-08-30T02:15:57.925Z,96004.04
2018-08-30T02:18:26.539Z,96003.48
2018-08-30T02:20:55.851Z,96003.70
2018-08-30T02:23:25.012Z,96005.98
2018-08-30T02:25:53.961Z,95998.19
2018-08-30T02:28:22.738Z,96007.44
2018-08-30T02:30:51.623Z,96013.22
2018-08-30T02:33:20.600Z,96011.27
2018-08-30T02:35:49.275Z,96013.86
2018-08-30T02:38:17.903Z,96016.64
2018-08-30T02:40:46.604Z,96017.08
2018-08-30T02:43:15.173Z,96014.42
2018-08-30T02:45:44.370Z,96019.30
2018-08-30T02:48:13.096Z,96023.66
2018-08-30T02:50:41.731Z,96024.16
2018-08-30T02:53:10.440Z,96018.32
2018-08-30T02:55:39.116Z,96022.35
2018-08-30T02:58:08.232Z,96010.58
2018-08-30T03:00:36.908Z,96015.16
2018-08-30T03:03:05.655Z,96011.89
2018-08-30T03:05:35.119Z,96013.63
2018-08-30T03:08:04.735Z,96020.25
2018-08-30T03:10:33.611Z,96022.19
2018-08-30T03:13:02.196Z,96022.92
2018-08-30T03:15:30.867Z,96020.38
2018-08-30T03:18:00.304Z,96023.00
2018-08-30T03:20:28.875Z,96025.91
2018-08-30T03:22:57.711Z,96020.89
2018-08-30T03:25:26.274Z,96021.22
2018-08-30T03:27:54.891Z,96021.44
2018-08-30T03:30:23.709Z,96018.59
2018-08-30T03:32:53.007Z,96016.78
2018-08-30T03:35:21.748Z,96015.57
2018-08-30T03:37:51.089Z,96017.81
2018-08-30T03:40:20.792Z,96007.86
2018-08-30T03:42:49.651Z,96015.09
2018-08-30T03:45:19.108Z,96012.76
2018-08-30T03:47:47.624Z,96016.56
2018-08-30T03:50:16.243Z,96016.35
2018-08-30T03:52:45.003Z,96015.93
2018-08-30T03:55:13.703Z,96016.08
2018-08-30T03:57:42.382Z,96017.87
2018-08-30T04:00:11.051Z,96023.67
2018-08-30T04:02:39.773Z,96022.13
2018-08-30T04:05:08.399Z,96023.89
2018-08-30T04:07:37.088Z,96018.20
2018-08-30T04:10:05.788Z,96017.47
2018-08-30T04:12:34.505Z,96019.26
2018-08-30T04:15:03.160Z,96022.76
2018-08-30T04:17:32.000Z,96022.36
2018-08-30T04:20:01.407Z,96012.77
2018-08-30T04:22:30.040Z,96022.98
2018-08-30T04:24:58.714Z,96020.20
2018-08-30T04:27:27.402Z,96028.13
2018-08-30T04:29:56.064Z,96033.78
2018-08-30T04:32:24.772Z,96033.52
2018-08-30T04:34:53.315Z,96040.03
2018-08-30T04:37:22.161Z,96050.50
2018-08-30T04:39:51.647Z,96044.41
2018-08-30T04:42:20.565Z,96047.94
2018-08-30T04:44:49.246Z,96047.20
2018-08-30T04:47:18.103Z,96048.56
2018-08-30T04:49:46.720Z,96047.80
2018-08-30T04:52:15.495Z,96057.98
2018-08-30T04:54:44.352Z,96050.84
2018-08-30T04:57:12.903Z,96058.22
2018-08-30T04:59:42.126Z,96055.33
2018-08-30T05:02:10.865Z,96062.20
2018-08-30T05:04:39.569Z,96055.55
2018-08-30T05:07:08.763Z,96067.14
2018-08-30T05:09:37.492Z,96063.32
2018-08-30T05:12:06.163Z,96068.80
2018-08-30T05:14:34.980Z,96067.45
2018-08-30T05:17:03.979Z,96060.98
2018-08-30T05:19:33.265Z,96061.52
2018-08-30T05:22:03.145Z,96069.39
2018-08-30T05:24:32.039Z,96068.35
2018-08-30T05:27:00.780Z,96072.30
2018-08-30T05:29:29.424Z,96076.02
2018-08-30T05:31:58.217Z,96073.45
2018-08-30T05:34:26.773Z,96073.86
2018-08-30T05:36:56.101Z,96077.77
2018-08-30T05:39:24.777Z,96075.38
2018-08-30T05:41:54.283Z,96077.95
2018-08-30T05:44:22.977Z,96076.95
2018-08-30T05:46:52.915Z,96074.71
2018-08-30T05:49:22.371Z,96079.33
2018-08-30T05:51:50.988Z,96074.71
2018-08-30T05:54:20.136Z,96065.59
2018-08-30T05:56:49.057Z,96074.34
2018-08-30T05:59:18.349Z,96077.20
2018-08-30T06:01:47.039Z,96068.36
2018-08-30T06:04:17.124Z,96072.23
2018-08-30T06:06:45.820Z,96074.97
2018-08-30T06:09:14.529Z,96075.55
2018-08-30T06:11:43.850Z,96076.02
2018-08-30T06:14:12.666Z,96084.42
2018-08-30T06:16:41.379Z,96079.12
2018-08-30T06:19:10.057Z,96085.45
2018-08-30T06:21:38.737Z,96078.25
2018-08-30T06:24:07.529Z,96077.16
2018-08-30T06:26:36.977Z,96074.90
2018-08-30T06:29:06.230Z,96077.63
2018-08-30T06:31:34.792Z,96078.08
2018-08-30T06:34:03.913Z,96080.88
2018-08-30T06:36:33.204Z,96091.92
2018-08-30T06:39:02.346Z,96089.66
2018-08-30T06:41:30.887Z,96093.48
2018-08-30T06:43:59.567Z,96096.77
2018-08-30T06:46:28.431Z,96090.69
2018-08-30T06:48:57.386Z,96099.19
2018-08-30T06:51:26.739Z,96098.37
2018-08-30T06:53:55.368Z,96097.46
2018-08-30T06:56:24.760Z,96113.30
2018-08-30T06:58:53.721Z,96122.40
2018-08-30T07:01:22.467Z,96114.16
2018-08-30T07:03:51.119Z,96121.72
2018-08-30T07:06:19.759Z,96131.24
2018-08-30T07:08:48.478Z,96135.02
2018-08-30T07:11:25.872Z,96135.88
2018-08-30T07:14:03.223Z,96138.63
2018-08-30T07:16:31.965Z,96144.64
2018-08-30T07:22:03.325Z,96135.89
2018-08-30T07:24:31.988Z,96153.58
2018-08-30T07:27:00.873Z,96149.12
2018-08-30T07:29:29.612Z,96151.83
2018-08-30T07:31:58.286Z,96159.61
2018-08-30T07:34:27.280Z,96164.64
2018-08-30T07:36:56.063Z,96164.12
2018-08-30T07:39:24.954Z,96169.07
2018-08-30T07:41:53.800Z,96164.45
2018-08-30T07:44:22.794Z,96166.13
2018-08-30T07:46:51.397Z,96170.05
2018-08-30T07:49:21.013Z,96171.95
2018-08-30T07:51:50.002Z,96171.84
2018-08-30T07:54:18.694Z,96175.85
2018-08-30T07:56:47.381Z,96185.69
2018-08-30T07:59:16.000Z,96181.22
2018-08-30T08:01:45.491Z,96181.59
2018-08-30T08:04:14.036Z,96183.52
2018-08-30T08:06:42.556Z,96176.63
2018-08-30T08:09:11.567Z,96176.06
2018-08-30T08:11:40.280Z,96184.56
2018-08-30T08:14:08.931Z,96185.16
2018-08-30T08:16:38.321Z,96191.03
2018-08-30T08:19:06.956Z,96184.75
2018-08-30T08:21:36.243Z,96191.52
2018-08-30T08:24:04.900Z,96185.94
2018-08-30T08:26:33.921Z,96194.34
2018-08-30T08:29:03.119Z,96190.56
2018-08-30T08:31:32.021Z,96192.06
2018-08-30T08:34:00.689Z,96187.16
2018-08-30T08:36:29.389Z,96189.23
2018-08-30T08:38:58.080Z,96191.11
2018-08-30T08:41:26.747Z,96199.57
2018-08-30T08:43:55.504Z,96199.67
2018-08-30T08:46:24.056Z,96193.67
2018-08-30T08:48:52.610Z,96202.27
2018-08-30T08:51:21.145Z,96193.77
2018-08-30T08:53:49.782Z,96199.44
2018-08-30T08:56:18.325Z,96199.44
2018-08-30T08:58:46.933Z,96206.83
2018-08-30T09:01:15.470Z,96210.69
2018-08-30T09:03:44.352Z,96205.72
2018-08-30T09:06:12.920Z,96205.52
2018-08-30T09:08:41.495Z,96202.86
2018-08-30T09:11:10.040Z,96205.95
2018-08-30T09:13:38.727Z,96202.81
2018-08-30T09:16:07.264Z,96211.41
2018-08-30T09:18:35.839Z,96206.37
2018-08-30T09:21:04.473Z,96205.56
2018-08-30T09:23:34.216Z,96208.86
2018-08-30T09:26:02.891Z,96212.87
2018-08-30T09:28:31.771Z,96215.23
2018-08-30T09:31:00.318Z,96211.42
2018-08-30T09:33:28.884Z,96209.63
2018-08-30T09:35:57.631Z,96211.47
2018-08-30T09:38:27.163Z,96209.05
2018-08-30T09:40:55.799Z,96211.80
2018-08-30T09:43:24.487Z,96209.31
2018-08-30T09:45:53.155Z,96211.09
2018-08-30T09:48:22.473Z,96210.50
2018-08-30T09:50:51.236Z,96209.33
2018-08-30T09:53:20.668Z,96210.42
2018-08-30T09:55:49.414Z,96212.23
2018-08-30T09:58:17.925Z,96206.52
2018-08-30T10:00:51.619Z,96208.03
2018-08-30T10:03:20.525Z,96205.25
2018-08-30T10:05:49.196Z,96210.44
2018-08-30T10:08:17.891Z,96206.95
2018-08-30T10:10:47.424Z,96205.02
2018-08-30T10:13:16.094Z,96203.03
2018-08-30T10:15:45.024Z,96213.03
2018-08-30T10:18:13.844Z,96216.16
2018-08-30T10:20:42.536Z,96217.98
2018-08-30T10:23:11.124Z,96224.81
2018-08-30T10:25:39.932Z,96217.78
2018-08-30T10:28:08.580Z,96223.39
2018-08-30T10:30:37.259Z,96218.95
2018-08-30T10:33:06.127Z,96221.46
2018-08-30T10:35:34.835Z,96221.20
2018-08-30T10:38:03.581Z,96218.31
2018-08-30T10:40:32.896Z,96222.05
2018-08-30T10:43:02.390Z,96223.28
2018-08-30T10:45:31.836Z,96220.67
2018-08-30T10:48:00.523Z,96225.95
2018-08-30T10:50:29.236Z,96223.97
2018-08-30T10:52:57.919Z,96222.36
2018-08-30T10:55:26.571Z,96221.95
2018-08-30T10:57:55.212Z,96222.97
2018-08-30T11:00:24.799Z,96215.37
2018-08-30T11:02:53.461Z,96219.05
2018-08-30T11:05:22.782Z,96219.46
2018-08-30T11:07:51.454Z,96214.22
2018-08-30T11:10:20.103Z,96216.12
2018-08-30T11:12:48.910Z,96214.98
2018-08-30T11:15:18.433Z,96214.80
2018-08-30T11:17:47.204Z,96221.09
2018-08-30T11:20:15.830Z,96213.55
2018-08-30T11:22:45.182Z,96218.50
2018-08-30T11:25:13.920Z,96215.80
2018-08-30T11:27:43.623Z,96221.55
2018-08-30T11:30:12.224Z,96231.12
2018-08-30T11:32:40.820Z,96231.03
2018-08-30T11:35:09.379Z,96234.81
2018-08-30T11:37:37.986Z,96231.86
2018-08-30T11:40:06.654Z,96237.39
2018-08-30T11:42:35.365Z,96236.00
2018-08-30T11:45:04.817Z,96236.31
2018-08-30T11:47:34.595Z,96239.59
2018-08-30T11:50:03.148Z,96238.38
2018-08-30T11:52:32.745Z,96241.97
2018-08-30T11:55:01.716Z,96242.55
2018-08-30T11:57:30.286Z,96236.47
2018-08-30T11:59:58.833Z,96246.11
2018-08-30T12:02:27.406Z,96241.44
2018-08-30T12:04:56.811Z,96239.42
2018-08-30T12:07:25.391Z,96254.41
2018-08-30T12:09:54.011Z,96249.05
2018-08-30T12:12:22.535Z,96247.97
2018-08-30T12:14:51.059Z,96238.89
2018-08-30T12:17:19.667Z,96242.21
2018-08-30T12:19:48.202Z,96243.23
2018-08-30T12:22:16.816Z,96244.59
2018-08-30T12:24:45.508Z,96247.09
2018-08-30T12:27:14.161Z,96256.79
2018-08-30T12:29:43.564Z,96266.37
2018-08-30T12:32:12.848Z,96269.20
2018-08-30T12:34:42.171Z,96277.20
2018-08-30T12:37:11.163Z,96273.75
2018-08-30T12:39:39.842Z,96275.00
2018-08-30T12:42:09.306Z,96282.63
2018-08-30T12:44:38.735Z,96290.06
2018-08-30T12:47:08.316Z,96293.25
2018-08-30T12:49:37.410Z,96298.46
2018-08-30T12:52:06.138Z,96295.66
2018-08-30T12:54:34.762Z,96298.27
2018-08-30T12:57:03.648Z,96303.67
2018-08-30T12:59:38.070Z,96302.98
2018-08-30T13:02:06.838Z,96316.71
2018-08-30T13:04:35.704Z,96314.66
2018-08-30T13:07:04.596Z,96318.55
2018-08-30T13:09:33.198Z,96307.23
2018-08-30T13:12:02.040Z,96303.87
2018-08-30T13:14:31.451Z,96293.06
2018-08-30T13:16:59.982Z,96293.52
2018-08-30T13:19:28.884Z,96299.25
2018-08-30T13:21:57.785Z,96299.80
2018-08-30T13:24:27.589Z,96302.35
2018-08-30T13:26:56.440Z,96305.59
2018-08-30T13:29:25.252Z,96307.48
2018-08-30T13:31:54.745Z,96314.47
2018-08-30T13:34:24.011Z,96319.29
2018-08-30T13:36:52.557Z,96325.91
2018-08-30T13:39:21.083Z,96322.64
2018-08-30T13:41:49.482Z,96321.95
2018-08-30T13:44:18.215Z,96319.04
2018-08-30T13:46:47.241Z,96330.07
2018-08-30T13:49:15.564Z,96323.25
2018-08-30T13:51:44.474Z,96323.84
2018-08-30T13:54:13.247Z,96327.59
2018-08-30T13:56:42.098Z,96343.77
2018-08-30T13:59:11.461Z,96352.14
2018-08-30T14:01:40.650Z,96353.89
2018-08-30T14:04:09.329Z,96364.48
2018-08-30T14:06:38.174Z,96358.09
2018-08-30T14:09:07.272Z,96364.78
2018-08-30T14:11:35.983Z,96365.99
2018-08-30T14:14:05.074Z,96368.34
2018-08-30T14:16:33.356Z,96368.44
2018-08-30T14:19:02.067Z,96369.84
2018-08-30T14:21:30.963Z,96365.60
2018-08-30T14:23:59.650Z,96370.48
2018-08-30T14:26:28.327Z,96370.17
2018-08-30T14:28:57.183Z,96370.02
2018-08-30T14:31:25.904Z,96369.46
2018-08-30T14:33:55.205Z,96365.91
2018-08-30T14:36:24.095Z,96365.80
2018-08-30T14:38:52.771Z,96366.77
2018-08-30T14:41:22.104Z,96371.41
2018-08-30T14:43:50.584Z,96369.39
2018-08-30T14:46:19.318Z,96368.22
2018-08-30T14:48:48.454Z,96374.45
2018-08-30T14:51:17.295Z,96379.66
2018-08-30T14:53:46.125Z,96384.20
2018-08-30T14:56:15.419Z,96388.39
2018-08-30T14:58:44.068Z,96389.59
2018-08-30T15:01:12.744Z,96398.06
2018-08-30T15:03:41.439Z,96391.44
2018-08-30T15:06:10.518Z,96390.00
2018-08-30T15:08:39.425Z,96384.17
2018-08-30T15:11:08.428Z,96387.97
2018-08-30T15:13:36.800Z,96381.69
2018-08-30T15:16:06.248Z,96377.95
2018-08-30T15:18:36.041Z,96388.87
2018-08-30T15:21:04.885Z,96385.16
2018-08-30T15:23:34.138Z,96387.45
2018-08-30T15:26:03.284Z,96388.27
2018-08-30T15:28:31.848Z,96390.88
2018-08-30T15:31:00.451Z,96397.88
2018-08-30T15:33:29.127Z,96401.27
2018-08-30T15:35:59.131Z,96410.89
2018-08-30T15:38:28.563Z,96415.09
2018-08-30T15:40:57.300Z,96419.00
2018-08-30T15:43:25.952Z,96426.45
2018-08-30T15:45:55.243Z,96433.30
2018-08-30T15:48:24.132Z,96431.48
2018-08-30T15:50:53.708Z,96438.81
2018-08-30T15:53:22.397Z,96436.23
2018-08-30T15:55:51.036Z,96447.28
2018-08-30T15:58:19.886Z,96450.22
2018-08-30T16:00:49.792Z,96454.77
2018-08-30T16:03:18.522Z,96464.84
2018-08-30T16:05:47.174Z,96470.03
2018-08-30T16:08:15.852Z,96471.19
2018-08-30T16:10:44.752Z,96469.87
2018-08-30T16:13:13.461Z,96475.39
2018-08-30T16:15:42.131Z,96474.75
2018-08-30T16:21:13.214Z,96495.05
2018-08-30T16:23:41.769Z,96491.62
2018-08-30T16:26:10.771Z,96494.08
2018-08-30T16:28:39.463Z,96485.80
2018-08-30T16:31:08.203Z,96489.86
2018-08-30T16:33:37.439Z,96487.74
2018-08-30T16:36:06.362Z,96488.52
2018-08-30T16:38:34.988Z,96479.75
2018-08-30T16:41:04.787Z,96482.34
2018-08-30T16:43:33.452Z,96475.20
2018-08-30T16:46:02.268Z,96481.52
2018-08-30T16:48:31.189Z,96482.00
2018-08-30T16:50:59.831Z,96476.00
2018-08-30T16:53:28.600Z,96472.60
2018-08-30T16:55:58.096Z,96474.54
2018-08-30T16:58:27.345Z,96461.73
2018-08-30T17:00:56.144Z,96461.57
2018-08-30T17:03:25.013Z,96463.98
2018-08-30T17:05:54.196Z,96460.91
2018-08-30T17:08:23.995Z,96458.47
2018-08-30T17:10:52.814Z,96471.45
2018-08-30T17:13:22.314Z,96465.78
2018-08-30T17:15:51.191Z,96463.36
2018-08-30T17:18:19.784Z,96465.45
2018-08-30T17:20:50.847Z,96469.20
2018-08-30T17:23:19.699Z,96470.97
2018-08-30T17:25:49.673Z,96459.91
2018-08-30T17:28:18.484Z,96462.84
2018-08-30T17:30:47.837Z,96459.78
2018-08-30T17:33:16.402Z,96463.66
2018-08-30T17:35:45.651Z,96475.03
2018-08-30T17:38:14.272Z,96475.80
2018-08-30T17:40:43.024Z,96473.44
2018-08-30T17:43:11.665Z,96474.26
2018-08-30T17:45:41.380Z,96484.30
2018-08-30T17:48:09.957Z,96486.73
2018-08-30T17:50:38.904Z,96474.44
2018-08-30T17:53:07.599Z,96476.91
2018-08-30T17:55:36.405Z,96483.89
2018-08-30T17:58:05.242Z,96494.25
2018-08-30T18:00:33.860Z,96501.40
2018-08-30T18:03:03.448Z,96507.57
2018-08-30T18:05:32.229Z,96512.42
2018-08-30T18:08:01.567Z,96512.10
2018-08-30T18:10:30.255Z,96516.31
2018-08-30T18:12:59.677Z,96519.02
2018-08-30T18:15:29.443Z,96523.56
2018-08-30T18:17:58.613Z,96528.16
2018-08-30T18:20:27.248Z,96526.06
2018-08-30T18:22:55.924Z,96526.88
2018-08-30T18:25:24.536Z,96516.34
2018-08-30T18:27:53.257Z,96511.80
2018-08-30T18:30:21.903Z,96515.67
2018-08-30T18:32:50.734Z,96529.92
2018-08-30T18:35:20.026Z,96530.69
2018-08-30T18:37:48.680Z,96528.41
2018-08-30T18:40:17.501Z,96528.70
2018-08-30T18:42:46.270Z,96521.73
2018-08-30T18:45:15.412Z,96509.11
2018-08-30T18:47:44.172Z,96509.11
2018-08-30T18:50:13.087Z,96510.86
2018-08-30T18:52:41.843Z,96513.13
2018-08-30T18:55:11.181Z,96523.36
2018-08-30T18:57:39.896Z,96530.47
2018-08-30T19:00:09.031Z,96534.49
2018-08-30T19:02:38.332Z,96533.04
2018-08-30T19:05:07.028Z,96541.64
2018-08-30T19:07:35.946Z,96545.50
2018-08-30T19:10:04.824Z,96540.34
2018-08-30T19:12:33.775Z,96541.64
2018-08-30T19:15:06.758Z,96547.43
2018-08-30T19:17:40.573Z,96545.98
2018-08-30T19:20:10.108Z,96534.49
2018-08-30T19:22:38.700Z,96529.15
2018-08-30T19:25:14.408Z,96525.25
2018-08-30T19:27:44.078Z,96528.33
2018-08-30T19:30:18.602Z,96524.24
2018-08-30T19:32:47.560Z,96520.83
2018-08-30T19:35:22.367Z,96521.86
2018-08-30T19:37:51.480Z,96520.38
2018-08-30T19:40:25.255Z,96525.67
2018-08-30T19:42:55.107Z,96528.90
2018-08-30T19:45:23.880Z,96524.38
2018-08-30T19:47:52.439Z,96515.81
2018-08-30T19:50:21.300Z,96518.56
2018-08-30T19:52:49.980Z,96523.55
2018-08-30T19:55:19.878Z,96527.24
2018-08-30T19:57:48.648Z,96526.27
2018-08-30T20:00:17.484Z,96520.41
2018-08-30T20:02:47.185Z,96523.63
2018-08-30T20:05:15.842Z,96518.30
2018-08-30T20:07:44.564Z,96510.87
2018-08-30T20:10:14.018Z,96515.48
2018-08-30T20:12:42.580Z,96515.13
2018-08-30T20:15:11.207Z,96517.41
2018-08-30T20:17:39.920Z,96515.79
2018-08-30T20:20:08.809Z,96516.40
2018-08-30T20:22:37.503Z,96526.26
2018-08-30T20:25:07.039Z,96530.66
2018-08-30T20:27:36.059Z,96529.73
2018-08-30T20:30:05.152Z,96530.41
2018-08-30T20:32:33.780Z,96533.31
2018-08-30T20:35:02.492Z,96532.41
2018-08-30T20:37:31.191Z,96530.66
2018-08-30T20:40:00.464Z,96531.65
2018-08-30T20:42:29.167Z,96531.17
2018-08-30T20:44:57.910Z,96526.31
2018-08-30T20:47:26.588Z,96518.70
2018-08-30T20:49:55.464Z,96526.63
2018-08-30T20:52:24.991Z,96523.36
2018-08-30T20:54:53.649Z,96522.42
2018-08-30T20:57:22.473Z,96531.49
2018-08-30T20:59:51.644Z,96527.61
2018-08-30T21:02:20.431Z,96525.80
2018-08-30T21:04:49.147Z,96513.98
2018-08-30T21:07:18.028Z,96510.25
2018-08-30T21:09:46.775Z,96516.93
2018-08-30T21:12:15.690Z,96511.55
2018-08-30T21:14:44.320Z,96515.63
2018-08-30T21:17:14.089Z,96516.80
2018-08-30T21:19:42.799Z,96515.03
2018-08-30T21:22:11.379Z,96513.05
2018-08-30T21:24:40.732Z,96517.08
2018-08-30T21:27:10.092Z,96519.84
2018-08-30T21:29:38.956Z,96519.67
2018-08-30T21:32:08.352Z,96516.06
2018-08-30T21:34:37.171Z,96519.83
2018-08-30T21:37:05.989Z,96523.55
2018-08-30T21:39:34.904Z,96522.89
2018-08-30T21:42:03.546Z,96517.03
2018-08-30T21:44:32.275Z,96519.73
2018-08-30T21:47:02.607Z,96517.76
2018-08-30T21:49:35.610Z,96517.77
2018-08-30T21:52:11.464Z,96518.08
2018-08-30T21:54:47.821Z,96520.15
2018-08-30T21:57:27.139Z,96526.78
2018-08-30T21:59:57.226Z,96527.91
2018-08-30T22:02:26.557Z,96526.56
2018-08-30T22:04:55.280Z,96527.80
2018-08-30T22:07:24.304Z,96518.73
2018-08-30T22:09:53.072Z,96525.10
2018-08-30T22:12:21.759Z,96519.68
2018-08-30T22:14:50.443Z,96513.01
2018-08-30T22:23:14.599Z,96515.91
2018-08-30T22:25:43.207Z,96507.93
2018-08-30T22:28:12.109Z,96509.15
2018-08-30T22:30:40.719Z,96504.57
2018-08-30T22:33:09.429Z,96513.13
2018-08-30T22:35:38.088Z,96513.27
2018-08-30T22:38:07.412Z,96508.87
2018-08-30T22:40:36.078Z,96508.64
2018-08-30T22:43:04.811Z,96505.95
2018-08-30T22:45:34.007Z,96502.30
2018-08-30T22:48:02.756Z,96503.66
2018-08-30T22:50:31.873Z,96501.69
2018-08-30T22:53:00.519Z,96497.83
2018-08-30T22:55:30.230Z,96495.59
2018-08-30T22:57:58.960Z,96493.95
2018-08-30T23:00:27.812Z,96500.86
2018-08-30T23:02:56.448Z,96500.80
2018-08-30T23:05:25.401Z,96505.44
2018-08-30T23:07:54.088Z,96510.78
2018-08-30T23:10:22.724Z,96510.61
2018-08-30T23:12:51.416Z,96507.41
2018-08-30T23:15:20.319Z,96517.17
2018-08-30T23:17:49.095Z,96508.27
2018-08-30T23:20:17.705Z,96504.44
2018-08-30T23:22:46.659Z,96498.91
2018-08-30T23:25:15.264Z,96499.98
2018-08-30T23:27:43.921Z,96505.80
2018-08-30T23:30:12.497Z,96502.91
2018-08-30T23:32:41.126Z,96499.86
2018-08-30T23:35:10.412Z,96502.33
2018-08-30T23:37:39.084Z,96501.03
2018-08-30T23:40:10.102Z,96500.36
2018-08-30T23:42:39.123Z,96493.54
2018-08-30T23:45:08.207Z,96494.57
2018-08-30T23:47:36.907Z,96493.21
2018-08-30T23:50:05.795Z,96499.27
2018-08-30T23:52:34.829Z,96497.71
2018-08-30T23:55:03.590Z,96493.41
2018-08-30T23:57:32.152Z,96497.33
